Terminal Aerodrome Forecast
Issued by NWS

Home | Current Version | Previous Version | Text Only | Print | Product List | Glossary On
Versions: 1 2 3 4 5 6 7 8 9 10 11 12 13 14 15 16 17 18
511
FTUS45 KMSO 212336
TAFSMN
TAF
KSMN 212336Z 2200/2224 VRB04KT P6SM BKN070
     FM220400 00000KT 4SM BR SCT010 BKN040
     FM222200 VRB04KT P6SM VCSH BKN040
      AMD LTD TO CLD VIS AND WIND=

USA.gov is the U.S. government's official web portal to all federal, state and local government web resources and services.